createdAt,value
2022-11-28T00:03:33.822Z,15.52
2022-11-28T00:06:21.445Z,15.68
2022-11-28T00:09:09.135Z,15.90
2022-11-28T00:11:56.166Z,16.60
2022-11-28T00:14:43.307Z,15.05
2022-11-28T00:17:30.596Z,15.05
2022-11-28T00:20:17.688Z,14.30
2022-11-28T00:23:04.722Z,14.90
2022-11-28T00:26:03.759Z,15.32
2022-11-28T00:28:51.792Z,14.95
2022-11-28T00:31:42.926Z,15.52
2022-11-28T00:34:30.320Z,15.27
2022-11-28T00:37:17.388Z,15.20
2022-11-28T00:40:04.759Z,13.73
2022-11-28T00:42:51.781Z,13.85
2022-11-28T00:45:38.921Z,13.57
2022-11-28T00:48:26.932Z,13.57
2022-11-28T00:51:17.894Z,13.95
2022-11-28T00:54:06.280Z,12.75
2022-11-28T00:56:53.339Z,14.30
2022-11-28T00:59:40.526Z,13.85
2022-11-28T01:02:28.143Z,13.60
2022-11-28T01:05:15.306Z,13.57
2022-11-28T01:08:02.315Z,12.40
2022-11-28T01:10:49.405Z,12.48
2022-11-28T01:13:36.397Z,12.88
2022-11-28T01:16:23.714Z,12.45
2022-11-28T01:19:11.199Z,13.63
2022-11-28T01:21:58.296Z,13.05
2022-11-28T01:24:45.309Z,12.55
2022-11-28T01:27:32.444Z,12.13
2022-11-28T01:30:19.647Z,12.18
2022-11-28T01:33:06.759Z,12.30
2022-11-28T01:35:58.770Z,13.15
2022-11-28T01:38:46.821Z,11.88
2022-11-28T01:41:34.179Z,12.52
2022-11-28T01:44:21.151Z,12.90
2022-11-28T01:47:08.275Z,13.45
2022-11-28T01:49:55.999Z,13.30
2022-11-28T01:52:48.160Z,12.98
2022-11-28T01:55:40.227Z,11.93
2022-11-28T01:58:28.624Z,11.77
2022-11-28T02:01:17.259Z,11.95
2022-11-28T02:04:04.901Z,11.13
2022-11-28T02:06:51.919Z,12.43
2022-11-28T02:09:38.904Z,10.82
2022-11-28T02:13:07.097Z,11.02
2022-11-28T02:16:09.885Z,10.02
2022-11-28T02:19:27.569Z,10.80
2022-11-28T02:22:27.320Z,9.48
2022-11-28T02:25:52.722Z,10.13
2022-11-28T02:29:11.860Z,11.32
2022-11-28T02:32:17.277Z,10.93
2022-11-28T02:35:20.638Z,10.05
2022-11-28T02:38:39.560Z,10.93
2022-11-28T02:41:35.121Z,10.85
2022-11-28T02:44:49.010Z,11.27
2022-11-28T02:47:41.139Z,10.65
2022-11-28T02:50:44.029Z,11.57
2022-11-28T02:53:33.840Z,10.85
2022-11-28T02:56:22.880Z,11.05
2022-11-28T02:59:31.513Z,11.15
2022-11-28T03:02:18.617Z,10.80
2022-11-28T03:05:38.077Z,10.40
2022-11-28T03:08:52.294Z,11.07
2022-11-28T03:12:01.170Z,10.10
2022-11-28T03:14:56.811Z,10.57
2022-11-28T03:18:24.868Z,9.85
2022-11-28T03:21:22.330Z,9.77
2022-11-28T03:24:20.158Z,11.25
2022-11-28T03:27:24.221Z,10.15
2022-11-28T03:30:22.199Z,12.25
2022-11-28T03:33:09.887Z,11.05
2022-11-28T03:36:04.379Z,10.15
2022-11-28T03:39:00.993Z,10.88
2022-11-28T03:42:22.300Z,12.35
2022-11-28T03:45:14.346Z,10.88
2022-11-28T03:48:06.719Z,11.55
2022-11-28T03:51:02.909Z,11.30
2022-11-28T03:54:10.979Z,10.88
2022-11-28T03:57:19.129Z,12.77
2022-11-28T04:00:09.140Z,11.77
2022-11-28T04:03:26.454Z,11.75
2022-11-28T04:06:39.980Z,11.45
2022-11-28T04:09:39.728Z,12.88
2022-11-28T04:12:35.720Z,12.60
2022-11-28T04:15:52.870Z,12.07
2022-11-28T04:18:52.091Z,12.20
2022-11-28T04:21:57.579Z,11.90
2022-11-28T04:24:54.018Z,12.55
2022-11-28T04:28:03.451Z,12.75
2022-11-28T04:30:52.565Z,13.25
2022-11-28T04:33:44.299Z,11.93
2022-11-28T04:36:35.608Z,11.98
2022-11-28T04:39:25.818Z,11.98
2022-11-28T04:45:14.194Z,11.30
2022-11-28T04:48:01.962Z,12.32
2022-11-28T04:51:12.369Z,11.30
2022-11-28T04:54:11.217Z,12.20
2022-11-28T04:57:07.771Z,11.82
2022-11-28T04:59:56.243Z,12.73
2022-11-28T05:02:45.352Z,11.95
2022-11-28T05:05:41.131Z,12.70
2022-11-28T05:08:28.237Z,12.55
2022-11-28T05:11:15.265Z,12.48
2022-11-28T05:14:02.560Z,13.18
2022-11-28T05:16:50.339Z,11.52
2022-11-28T05:19:37.409Z,12.35
2022-11-28T05:22:24.445Z,12.40
2022-11-28T05:25:11.729Z,12.23
2022-11-28T05:27:58.790Z,12.73
2022-11-28T05:30:45.991Z,13.07
2022-11-28T05:33:33.598Z,11.00
2022-11-28T05:36:21.186Z,12.25
2022-11-28T05:39:08.265Z,12.18
2022-11-28T05:41:56.266Z,12.68
2022-11-28T05:44:43.501Z,11.93
2022-11-28T05:47:32.269Z,12.52
2022-11-28T05:50:19.331Z,11.43
2022-11-28T05:53:06.407Z,12.27
2022-11-28T05:55:53.407Z,12.60
2022-11-28T05:58:41.135Z,11.82
2022-11-28T06:01:30.005Z,12.38
2022-11-28T06:04:17.188Z,12.23
2022-11-28T06:07:04.217Z,12.07
2022-11-28T06:09:51.462Z,11.93
2022-11-28T06:12:38.511Z,12.77
2022-11-28T06:15:25.630Z,13.00
2022-11-28T06:18:12.598Z,12.00
2022-11-28T06:21:02.952Z,13.38
2022-11-28T06:23:50.297Z,11.93
2022-11-28T06:26:37.409Z,12.65
2022-11-28T06:29:24.400Z,12.27
2022-11-28T06:32:11.565Z,13.13
2022-11-28T06:34:58.623Z,12.07
2022-11-28T06:37:45.670Z,12.38
2022-11-28T06:40:32.861Z,12.20
2022-11-28T06:43:19.924Z,12.52
2022-11-28T06:46:28.928Z,12.27
2022-11-28T06:49:15.975Z,12.82
2022-11-28T06:52:03.408Z,12.15
2022-11-28T06:54:50.424Z,12.23
2022-11-28T06:57:38.239Z,12.32
2022-11-28T07:00:25.543Z,13.60
2022-11-28T07:03:13.365Z,13.43
2022-11-28T07:06:04.956Z,12.52
2022-11-28T07:08:52.286Z,12.85
2022-11-28T07:11:44.754Z,13.02
2022-11-28T07:14:33.969Z,12.20
2022-11-28T07:17:21.049Z,12.80
2022-11-28T07:20:08.742Z,13.35
2022-11-28T07:22:55.884Z,14.40
2022-11-28T07:25:42.975Z,13.02
2022-11-28T07:28:31.408Z,13.27
2022-11-28T07:31:21.044Z,14.23
2022-11-28T07:34:09.387Z,10.82
2022-11-28T07:36:56.491Z,15.15
2022-11-28T07:39:44.820Z,14.82
2022-11-28T07:42:32.119Z,13.57
2022-11-28T07:45:20.186Z,13.73
2022-11-28T07:48:07.278Z,15.30
2022-11-28T07:50:54.291Z,15.32
2022-11-28T07:53:42.548Z,14.10
2022-11-28T07:57:04.077Z,15.23
2022-11-28T07:59:39.863Z,15.23
2022-11-28T08:02:28.089Z,14.07
2022-11-28T08:05:15.306Z,14.25
2022-11-28T08:08:02.505Z,14.55
2022-11-28T08:10:49.703Z,14.02
2022-11-28T08:13:38.146Z,14.20
2022-11-28T08:16:26.900Z,14.88
2022-11-28T08:19:14.035Z,15.23
2022-11-28T08:22:01.116Z,14.90
2022-11-28T08:24:48.121Z,15.57
2022-11-28T08:27:35.276Z,14.68
2022-11-28T08:30:24.522Z,14.88
2022-11-28T08:33:11.738Z,14.87
2022-11-28T08:35:58.958Z,14.25
2022-11-28T08:39:03.291Z,14.13
2022-11-28T08:41:59.741Z,14.73
2022-11-28T08:44:46.854Z,13.30
2022-11-28T08:47:33.913Z,12.90
2022-11-28T08:50:22.221Z,13.82
2022-11-28T08:53:09.238Z,13.38
2022-11-28T08:55:56.435Z,14.10
2022-11-28T09:01:16.131Z,13.73
2022-11-28T09:04:04.489Z,14.23
2022-11-28T09:06:51.934Z,14.02
2022-11-28T09:09:38.935Z,12.07
2022-11-28T09:12:25.947Z,12.50
2022-11-28T09:15:13.519Z,14.30
2022-11-28T09:18:00.793Z,12.90
2022-11-28T09:20:47.812Z,13.07
2022-11-28T09:23:36.016Z,13.57
2022-11-28T09:26:24.888Z,12.55
2022-11-28T09:29:11.951Z,10.35
2022-11-28T09:32:00.040Z,11.57
2022-11-28T09:34:47.123Z,10.75
2022-11-28T09:37:34.177Z,11.48
2022-11-28T09:40:33.280Z,11.02
2022-11-28T09:43:44.040Z,12.10
2022-11-28T09:46:35.348Z,12.30
2022-11-28T09:49:36.799Z,11.60
2022-11-28T09:52:47.450Z,10.88
2022-11-28T09:55:50.179Z,11.40
2022-11-28T09:58:48.614Z,11.43
2022-11-28T10:01:44.525Z,8.70
2022-11-28T10:04:42.397Z,9.27
2022-11-28T10:07:44.304Z,8.45
2022-11-28T10:10:50.514Z,8.57
2022-11-28T10:14:08.093Z,8.02
2022-11-28T10:17:30.208Z,7.28
2022-11-28T10:20:23.372Z,7.35
2022-11-28T10:23:23.888Z,6.80
2022-11-28T10:26:36.192Z,7.28
2022-11-28T10:29:33.531Z,7.63
2022-11-28T10:32:29.379Z,6.82
2022-11-28T10:35:28.925Z,6.95
2022-11-28T10:38:17.154Z,6.72
2022-11-28T10:41:19.207Z,7.90
2022-11-28T10:44:29.728Z,7.32
2022-11-28T10:47:45.454Z,7.40
2022-11-28T10:50:45.550Z,7.75
2022-11-28T10:53:49.223Z,6.93
2022-11-28T10:56:44.945Z,7.53
2022-11-28T10:59:48.938Z,7.38
2022-11-28T11:02:50.959Z,7.15
2022-11-28T11:05:39.495Z,6.88
2022-11-28T11:08:34.807Z,6.82
2022-11-28T11:11:32.319Z,7.80
2022-11-28T11:14:34.550Z,7.60
2022-11-28T11:17:37.811Z,6.97
2022-11-28T11:20:38.831Z,7.65
2022-11-28T11:23:26.092Z,7.47
2022-11-28T11:26:41.277Z,7.68
2022-11-28T11:29:28.271Z,7.47
2022-11-28T11:32:26.536Z,7.85
2022-11-28T11:35:19.454Z,7.72
2022-11-28T11:38:32.347Z,9.00
2022-11-28T11:41:31.587Z,7.30
2022-11-28T11:44:36.686Z,7.70
2022-11-28T11:47:44.200Z,7.43
2022-11-28T11:50:32.107Z,7.53
2022-11-28T11:53:19.304Z,7.13
2022-11-28T11:56:06.658Z,6.72
2022-11-28T11:58:56.123Z,6.45
2022-11-28T12:01:47.799Z,7.22
2022-11-28T12:04:47.073Z,6.55
2022-11-28T12:07:55.343Z,6.13
2022-11-28T12:10:52.531Z,5.60
2022-11-28T12:13:39.883Z,6.03
2022-11-28T12:17:47.346Z,5.53
2022-11-28T12:21:06.530Z,5.03
2022-11-28T12:24:10.076Z,5.45
2022-11-28T12:27:07.630Z,5.57
2022-11-28T12:30:19.635Z,5.53
2022-11-28T12:33:32.393Z,5.70
2022-11-28T12:36:22.431Z,6.13
2022-11-28T12:39:21.533Z,5.53
2022-11-28T12:42:23.632Z,5.63
2022-11-28T12:45:40.711Z,5.53
2022-11-28T12:48:33.630Z,5.82
2022-11-28T12:51:38.869Z,5.40
2022-11-28T12:54:25.829Z,6.05
2022-11-28T12:57:39.018Z,5.82
2022-11-28T13:00:27.821Z,5.60
2022-11-28T13:03:36.049Z,5.90
2022-11-28T13:06:23.061Z,5.20
2022-11-28T13:09:19.031Z,5.63
2022-11-28T13:12:26.999Z,6.22
2022-11-28T13:15:39.202Z,5.30
2022-11-28T13:18:38.388Z,5.07
2022-11-28T13:21:40.511Z,5.78
2022-11-28T13:24:40.269Z,5.57
2022-11-28T13:27:44.741Z,5.05
2022-11-28T13:30:42.319Z,5.15
2022-11-28T13:33:50.653Z,5.20
2022-11-28T13:40:17.839Z,5.95
2022-11-28T13:43:14.195Z,5.32
2022-11-28T13:49:27.604Z,5.47
2022-11-28T13:52:17.548Z,5.15
2022-11-28T13:55:04.985Z,5.97
2022-11-28T13:57:52.124Z,5.65
2022-11-28T14:00:39.925Z,5.80
2022-11-28T14:03:27.148Z,5.70
2022-11-28T14:06:19.028Z,5.95
2022-11-28T14:09:09.304Z,5.72
2022-11-28T14:11:59.835Z,5.93
2022-11-28T14:15:18.750Z,5.45
2022-11-28T14:18:55.739Z,5.78
2022-11-28T14:21:40.754Z,6.15
2022-11-28T14:25:02.491Z,5.65
2022-11-28T14:27:58.614Z,5.80
2022-11-28T14:30:46.940Z,5.15
2022-11-28T14:33:40.792Z,5.30
2022-11-28T14:36:34.325Z,5.55
2022-11-28T14:39:34.819Z,4.88
2022-11-28T14:42:58.367Z,5.05
2022-11-28T14:45:45.425Z,4.55
2022-11-28T14:48:32.595Z,4.60
2022-11-28T14:51:20.428Z,5.38
2022-11-28T14:54:35.677Z,5.43
2022-11-28T14:57:26.086Z,4.53
2022-11-28T15:00:23.069Z,5.20
2022-11-28T15:03:42.058Z,5.28
2022-11-28T15:06:35.483Z,4.35
2022-11-28T15:09:45.952Z,4.90
2022-11-28T15:13:00.779Z,5.82
2022-11-28T15:15:52.925Z,5.45
2022-11-28T15:18:48.435Z,5.68
2022-11-28T15:21:47.581Z,5.68
2022-11-28T15:24:37.519Z,5.75
2022-11-28T15:27:27.617Z,6.10
2022-11-28T15:33:03.863Z,5.45
2022-11-28T15:35:57.085Z,5.50
2022-11-28T15:38:44.250Z,6.32
2022-11-28T15:41:31.518Z,5.65
2022-11-28T15:44:18.790Z,5.90
2022-11-28T15:47:19.821Z,8.02
2022-11-28T15:50:09.838Z,6.93
2022-11-28T15:52:58.540Z,7.55
2022-11-28T15:55:46.432Z,7.28
2022-11-28T15:58:33.523Z,9.35
2022-11-28T16:01:23.733Z,8.48
2022-11-28T16:04:15.347Z,7.82
2022-11-28T16:07:04.708Z,7.55
2022-11-28T16:10:02.024Z,7.75
2022-11-28T16:12:50.299Z,7.57
2022-11-28T16:15:38.648Z,7.82
2022-11-28T16:18:29.642Z,7.38
2022-11-28T16:21:17.691Z,7.22
2022-11-28T16:24:18.208Z,8.23
2022-11-28T16:27:06.766Z,7.97
2022-11-28T16:29:54.683Z,7.90
2022-11-28T16:32:41.969Z,8.18
2022-11-28T16:35:40.575Z,8.35
2022-11-28T16:38:28.238Z,8.13
2022-11-28T16:41:25.570Z,8.82
2022-11-28T16:44:15.740Z,8.85
2022-11-28T16:47:03.138Z,9.02
2022-11-28T16:50:23.856Z,9.40
2022-11-28T16:54:00.082Z,8.75
2022-11-28T16:56:48.472Z,10.80
2022-11-28T16:59:36.105Z,11.25
2022-11-28T17:02:26.436Z,9.48
2022-11-28T17:05:14.005Z,9.93
2022-11-28T17:08:01.933Z,9.48
2022-11-28T17:11:03.083Z,10.48
2022-11-28T17:13:51.843Z,9.68
2022-11-28T17:16:40.598Z,10.65
2022-11-28T17:19:31.347Z,9.20
2022-11-28T17:22:25.540Z,9.90
2022-11-28T17:25:18.574Z,10.52
2022-11-28T17:28:06.214Z,11.35
2022-11-28T17:30:54.442Z,10.98
2022-11-28T17:33:44.865Z,11.65
2022-11-28T17:36:32.560Z,11.05
2022-11-28T17:39:21.317Z,10.27
2022-11-28T17:42:11.767Z,8.43
2022-11-28T17:44:59.421Z,8.98
2022-11-28T17:47:47.985Z,8.45
2022-11-28T17:50:35.919Z,9.07
2022-11-28T17:53:24.393Z,9.32
2022-11-28T17:56:15.603Z,8.55
2022-11-28T17:59:03.578Z,8.20
2022-11-28T18:01:51.755Z,7.60
2022-11-28T18:04:39.718Z,8.82
2022-11-28T18:07:27.303Z,9.98
2022-11-28T18:10:14.638Z,10.63
2022-11-28T18:13:02.296Z,10.35
2022-11-28T18:15:54.395Z,11.90
2022-11-28T18:18:42.181Z,11.00
2022-11-28T18:21:29.493Z,12.80
2022-11-28T18:24:17.927Z,13.18
2022-11-28T18:27:05.693Z,12.23
2022-11-28T18:29:53.423Z,12.18
2022-11-28T18:32:41.522Z,11.00
2022-11-28T18:35:29.142Z,11.10
2022-11-28T18:38:17.049Z,11.48
2022-11-28T18:41:07.125Z,11.20
2022-11-28T18:44:00.762Z,10.70
2022-11-28T18:46:49.222Z,9.80
2022-11-28T18:49:37.303Z,8.82
2022-11-28T18:52:25.185Z,9.52
2022-11-28T18:55:16.508Z,9.02
2022-11-28T18:58:04.480Z,9.65
2022-11-28T19:00:52.801Z,10.13
2022-11-28T19:03:41.946Z,9.90
2022-11-28T19:06:30.627Z,9.30
2022-11-28T19:09:20.680Z,9.40
2022-11-28T19:12:08.835Z,10.25
2022-11-28T19:15:01.843Z,9.57
2022-11-28T19:17:51.244Z,10.13
2022-11-28T19:20:43.828Z,9.35
2022-11-28T19:23:34.640Z,8.85
2022-11-28T19:26:24.827Z,9.52
2022-11-28T19:32:01.885Z,9.82
2022-11-28T19:34:52.891Z,9.80
2022-11-28T19:37:42.649Z,10.75
2022-11-28T19:40:30.835Z,9.85
2022-11-28T19:43:18.610Z,10.05
2022-11-28T19:46:07.550Z,10.45
2022-11-28T19:48:57.492Z,10.07
2022-11-28T19:51:45.934Z,10.20
2022-11-28T19:54:35.319Z,11.57
2022-11-28T19:57:24.257Z,11.45
2022-11-28T20:00:14.113Z,10.30
2022-11-28T20:03:01.611Z,11.27
2022-11-28T20:05:51.198Z,11.20
2022-11-28T20:08:40.050Z,11.65
2022-11-28T20:11:31.412Z,12.07
2022-11-28T20:14:24.032Z,12.02
2022-11-28T20:17:11.993Z,10.75
2022-11-28T20:20:00.482Z,14.18
2022-11-28T20:22:57.702Z,12.18
2022-11-28T20:25:45.758Z,12.45
2022-11-28T20:28:35.609Z,11.57
2022-11-28T20:31:31.644Z,12.55
2022-11-28T20:34:22.314Z,12.68
2022-11-28T20:37:10.037Z,12.45
2022-11-28T20:39:57.599Z,11.38
2022-11-28T20:42:45.786Z,11.52
2022-11-28T20:45:34.042Z,11.13
2022-11-28T20:48:23.332Z,12.05
2022-11-28T20:51:20.430Z,12.53
2022-11-28T20:54:11.518Z,13.20
2022-11-28T20:57:20.318Z,12.25
2022-11-28T21:00:08.242Z,13.20
2022-11-28T21:02:57.166Z,12.15
2022-11-28T21:05:44.691Z,12.38
2022-11-28T21:08:34.245Z,13.90
2022-11-28T21:11:55.643Z,13.18
2022-11-28T21:17:18.934Z,11.05
2022-11-28T21:20:08.663Z,11.13
2022-11-28T21:22:56.479Z,12.65
2022-11-28T21:25:44.802Z,13.23
2022-11-28T21:28:32.213Z,14.38
2022-11-28T21:31:22.503Z,15.40
2022-11-28T21:36:58.001Z,14.75
2022-11-28T21:39:45.332Z,14.27
2022-11-28T21:42:32.598Z,14.63
2022-11-28T21:45:20.040Z,13.45
2022-11-28T21:48:07.036Z,13.52
2022-11-28T21:50:54.084Z,14.38
2022-11-28T21:53:41.101Z,13.80
2022-11-28T21:56:28.377Z,15.55
2022-11-28T21:59:15.485Z,14.75
2022-11-28T22:02:05.991Z,16.10
2022-11-28T22:04:55.588Z,20.77
2022-11-28T22:07:42.676Z,18.70
2022-11-28T22:10:29.833Z,16.77
2022-11-28T22:13:16.882Z,20.75
2022-11-28T22:16:16.939Z,20.92
2022-11-28T22:19:04.253Z,19.27
2022-11-28T22:21:52.504Z,19.10
2022-11-28T22:24:41.491Z,18.45
2022-11-28T22:27:32.727Z,17.98
2022-11-28T22:30:19.881Z,18.20
2022-11-28T22:33:06.955Z,18.35
2022-11-28T22:35:54.048Z,18.40
2022-11-28T22:38:43.019Z,18.15
2022-11-28T22:41:30.091Z,17.73
2022-11-28T22:44:17.372Z,18.60
2022-11-28T22:47:04.681Z,18.25
2022-11-28T22:49:51.783Z,17.83
2022-11-28T22:52:38.791Z,17.48
2022-11-28T22:55:25.825Z,17.90
2022-11-28T22:58:12.912Z,17.83
2022-11-28T23:00:59.919Z,16.23
2022-11-28T23:03:47.076Z,17.27
2022-11-28T23:06:35.126Z,17.08
2022-11-28T23:09:22.227Z,19.35
2022-11-28T23:12:09.244Z,17.70
2022-11-28T23:14:56.232Z,18.55
2022-11-28T23:17:43.301Z,19.20
2022-11-28T23:20:30.299Z,19.27
2022-11-28T23:23:17.334Z,18.90
2022-11-28T23:26:10.041Z,18.20
2022-11-28T23:29:00.278Z,19.83
2022-11-28T23:34:34.698Z,20.65
2022-11-28T23:37:21.662Z,21.52
2022-11-28T23:40:09.284Z,22.17
2022-11-28T23:42:56.236Z,21.13
2022-11-28T23:45:43.322Z,20.35
2022-11-28T23:48:30.440Z,19.77
2022-11-28T23:51:21.539Z,19.35
2022-11-28T23:54:10.964Z,19.77
2022-11-28T23:56:57.981Z,20.40
2022-11-28T23:59:44.952Z,20.35
